createdAt,value
2022-09-22T00:01:34.671Z,11.80
2022-09-22T00:04:06.241Z,11.80
2022-09-22T00:06:37.028Z,11.90
2022-09-22T00:09:08.009Z,11.90
2022-09-22T00:11:39.085Z,11.90
2022-09-22T00:14:10.453Z,11.90
2022-09-22T00:16:42.026Z,11.80
2022-09-22T00:19:16.419Z,11.80
2022-09-22T00:21:45.236Z,11.70
2022-09-22T00:24:14.044Z,11.70
2022-09-22T00:26:44.108Z,11.70
2022-09-22T00:29:13.109Z,11.70
2022-09-22T00:31:43.191Z,11.70
2022-09-22T00:34:15.799Z,11.80
2022-09-22T00:36:44.640Z,11.80
2022-09-22T00:39:13.368Z,11.80
2022-09-22T00:41:45.238Z,11.80
2022-09-22T00:44:37.213Z,11.90
2022-09-22T00:47:35.112Z,11.80
2022-09-22T00:50:13.619Z,11.60
2022-09-22T00:52:47.533Z,11.50
2022-09-22T00:55:21.279Z,11.30
2022-09-22T00:57:51.765Z,11.20
2022-09-22T01:00:20.659Z,11.10
2022-09-22T01:02:52.014Z,11.10
2022-09-22T01:05:21.758Z,11.10
2022-09-22T01:07:50.541Z,11.10
2022-09-22T01:10:19.120Z,10.90
2022-09-22T01:12:58.030Z,10.90
2022-09-22T01:15:34.394Z,10.90
2022-09-22T01:18:14.324Z,10.90
2022-09-22T01:21:22.567Z,10.90
2022-09-22T01:24:23.931Z,10.90
2022-09-22T01:27:21.977Z,10.90
2022-09-22T01:30:23.120Z,10.90
2022-09-22T01:33:11.287Z,11.00
2022-09-22T01:35:50.135Z,11.10
2022-09-22T01:38:26.806Z,11.10
2022-09-22T01:41:01.720Z,11.20
2022-09-22T01:43:39.019Z,11.20
2022-09-22T01:46:13.299Z,11.20
2022-09-22T01:48:46.681Z,11.10
2022-09-22T01:51:20.707Z,10.90
2022-09-22T01:53:54.838Z,10.90
2022-09-22T01:56:26.187Z,10.70
2022-09-22T01:58:59.016Z,10.70
2022-09-22T02:01:30.490Z,10.70
2022-09-22T02:04:05.083Z,10.70
2022-09-22T02:06:37.829Z,10.80
2022-09-22T02:09:09.080Z,10.90
2022-09-22T02:11:37.399Z,10.80
2022-09-22T02:14:08.225Z,10.70
2022-09-22T02:16:37.089Z,10.60
2022-09-22T02:19:13.443Z,10.60
2022-09-22T02:21:45.645Z,10.60
2022-09-22T02:24:34.629Z,10.60
2022-09-22T02:27:07.784Z,10.60
2022-09-22T02:29:39.734Z,10.60
2022-09-22T02:32:12.217Z,10.50
2022-09-22T02:34:42.968Z,10.40
2022-09-22T02:37:20.005Z,10.40
2022-09-22T02:39:56.804Z,10.30
2022-09-22T02:42:30.279Z,10.20
2022-09-22T02:45:06.801Z,10.20
2022-09-22T02:47:39.695Z,10.20
2022-09-22T02:50:13.682Z,10.30
2022-09-22T02:52:42.131Z,10.30
2022-09-22T02:55:12.292Z,10.40
2022-09-22T02:57:40.789Z,10.50
2022-09-22T03:00:10.699Z,10.50
2022-09-22T03:02:39.650Z,10.50
2022-09-22T03:05:09.946Z,10.40
2022-09-22T03:07:38.863Z,10.40
2022-09-22T03:10:09.008Z,10.40
2022-09-22T03:13:02.524Z,10.40
2022-09-22T03:15:31.335Z,10.40
2022-09-22T03:18:00.214Z,10.40
2022-09-22T03:20:30.207Z,10.40
2022-09-22T03:22:58.962Z,10.30
2022-09-22T03:25:27.217Z,10.10
2022-09-22T03:27:55.491Z,9.80
2022-09-22T03:30:24.009Z,9.60
2022-09-22T03:32:52.390Z,9.60
2022-09-22T03:35:20.656Z,9.70
2022-09-22T03:37:50.834Z,9.90
2022-09-22T03:40:19.292Z,10.00
2022-09-22T03:42:48.321Z,10.10
2022-09-22T03:45:16.860Z,10.20
2022-09-22T03:47:46.470Z,10.40
2022-09-22T03:50:14.775Z,10.30
2022-09-22T03:52:45.219Z,10.20
2022-09-22T03:55:14.920Z,10.00
2022-09-22T03:57:44.089Z,9.80
2022-09-22T04:00:14.253Z,9.70
2022-09-22T04:02:43.229Z,9.70
2022-09-22T04:05:12.068Z,9.70
2022-09-22T04:07:40.825Z,9.80
2022-09-22T04:10:09.490Z,9.90
2022-09-22T04:12:40.596Z,10.00
2022-09-22T04:15:09.764Z,10.10
2022-09-22T04:17:38.935Z,10.20
2022-09-22T04:20:09.573Z,10.20
2022-09-22T04:22:37.872Z,10.20
2022-09-22T04:25:07.795Z,10.10
2022-09-22T04:27:36.077Z,10.00
2022-09-22T04:30:07.263Z,9.80
2022-09-22T04:32:35.544Z,9.70
2022-09-22T04:35:04.421Z,9.70
2022-09-22T04:37:32.923Z,9.70
2022-09-22T04:40:01.513Z,9.80
2022-09-22T04:42:29.980Z,9.70
2022-09-22T04:45:02.326Z,9.60
2022-09-22T04:47:32.843Z,9.60
2022-09-22T04:50:01.745Z,9.60
2022-09-22T04:52:31.659Z,9.50
2022-09-22T04:55:00.237Z,9.40
2022-09-22T04:57:28.710Z,9.20
2022-09-22T04:59:57.061Z,9.10
2022-09-22T05:02:25.863Z,9.00
2022-09-22T05:04:55.787Z,9.00
2022-09-22T05:07:24.775Z,9.00
2022-09-22T05:09:53.033Z,9.00
2022-09-22T05:12:21.787Z,8.90
2022-09-22T05:14:50.072Z,8.80
2022-09-22T05:17:19.026Z,8.70
2022-09-22T05:19:47.443Z,8.60
2022-09-22T05:22:17.788Z,8.40
2022-09-22T05:24:47.160Z,8.60
2022-09-22T05:27:15.543Z,8.80
2022-09-22T05:29:43.873Z,8.90
2022-09-22T05:32:12.332Z,9.00
2022-09-22T05:34:40.712Z,8.90
2022-09-22T05:37:09.610Z,8.90
2022-09-22T05:39:39.299Z,8.80
2022-09-22T05:42:11.026Z,8.60
2022-09-22T05:44:39.561Z,8.50
2022-09-22T05:47:08.127Z,8.40
2022-09-22T05:49:36.538Z,8.50
2022-09-22T05:52:05.742Z,8.70
2022-09-22T05:54:34.015Z,8.80
2022-09-22T05:57:04.314Z,9.00
2022-09-22T05:59:32.624Z,9.10
2022-09-22T06:02:02.481Z,9.10
2022-09-22T06:04:34.712Z,9.20
2022-09-22T06:07:03.110Z,9.30
2022-09-22T06:09:31.943Z,9.40
2022-09-22T06:12:01.010Z,9.50
2022-09-22T06:14:30.878Z,9.50
2022-09-22T06:16:59.184Z,9.50
2022-09-22T06:19:28.977Z,9.50
2022-09-22T06:21:57.264Z,9.50
2022-09-22T06:24:25.759Z,9.60
2022-09-22T06:26:54.053Z,9.80
2022-09-22T06:29:22.702Z,10.00
2022-09-22T06:31:53.129Z,10.20
2022-09-22T06:34:23.290Z,10.40
2022-09-22T06:36:51.687Z,10.50
2022-09-22T06:39:20.193Z,10.60
2022-09-22T06:41:49.060Z,10.80
2022-09-22T06:44:17.854Z,10.80
2022-09-22T06:46:46.131Z,10.90
2022-09-22T06:49:16.322Z,11.00
2022-09-22T06:51:44.786Z,11.10
2022-09-22T06:54:13.623Z,11.30
2022-09-22T06:56:42.761Z,11.40
2022-09-22T06:59:13.154Z,11.50
2022-09-22T07:01:42.816Z,11.70
2022-09-22T07:04:12.878Z,11.80
2022-09-22T07:06:43.313Z,11.90
2022-09-22T07:09:12.512Z,12.10
2022-09-22T07:11:40.797Z,12.20
2022-09-22T07:14:12.778Z,12.30
2022-09-22T07:16:41.261Z,12.40
2022-09-22T07:19:10.353Z,12.40
2022-09-22T07:21:40.621Z,12.40
2022-09-22T07:24:10.288Z,12.50
2022-09-22T07:26:41.021Z,12.50
2022-09-22T07:29:13.413Z,12.50
2022-09-22T07:31:43.649Z,12.50
2022-09-22T07:34:12.758Z,12.60
2022-09-22T07:36:41.854Z,12.70
2022-09-22T07:39:12.111Z,12.80
2022-09-22T07:41:43.847Z,12.80
2022-09-22T07:44:31.665Z,13.00
2022-09-22T07:47:01.342Z,13.20
2022-09-22T07:49:29.936Z,13.30
2022-09-22T07:51:58.547Z,13.50
2022-09-22T07:54:28.632Z,13.60
2022-09-22T07:56:59.577Z,13.70
2022-09-22T07:59:28.441Z,13.70
2022-09-22T08:01:56.766Z,13.70
2022-09-22T08:04:26.891Z,13.70
2022-09-22T08:06:56.378Z,13.80
2022-09-22T08:09:26.504Z,13.90
2022-09-22T08:11:57.186Z,13.90
2022-09-22T08:14:26.614Z,14.00
2022-09-22T08:16:54.918Z,14.10
2022-09-22T08:19:25.123Z,14.00
2022-09-22T08:21:54.809Z,14.10
2022-09-22T08:24:24.317Z,14.10
2022-09-22T08:26:56.190Z,14.30
2022-09-22T08:29:26.995Z,14.40
2022-09-22T08:31:55.309Z,14.50
2022-09-22T08:34:23.645Z,14.70
2022-09-22T08:36:52.418Z,14.80
2022-09-22T08:39:20.941Z,14.90
2022-09-22T08:42:05.802Z,15.00
2022-09-22T08:44:41.409Z,15.00
2022-09-22T08:47:38.667Z,15.10
2022-09-22T08:50:37.811Z,15.20
2022-09-22T08:53:10.000Z,15.30
2022-09-22T08:55:43.582Z,15.30
2022-09-22T08:58:27.519Z,15.30
2022-09-22T09:01:06.137Z,15.40
2022-09-22T09:03:50.340Z,15.50
2022-09-22T09:06:26.329Z,15.60
2022-09-22T09:09:27.980Z,15.60
2022-09-22T09:12:18.457Z,15.70
2022-09-22T09:15:06.106Z,15.80
2022-09-22T09:17:38.687Z,15.80
2022-09-22T09:20:17.953Z,15.80
2022-09-22T09:22:53.055Z,15.90
2022-09-22T09:25:28.291Z,16.00
2022-09-22T09:28:01.182Z,16.10
2022-09-22T09:30:39.543Z,16.10
2022-09-22T09:33:17.770Z,16.10
2022-09-22T09:35:50.295Z,16.10
2022-09-22T09:38:21.953Z,16.20
2022-09-22T09:40:58.489Z,16.30
2022-09-22T09:43:28.306Z,16.40
2022-09-22T09:46:07.070Z,16.40
2022-09-22T09:48:42.997Z,16.40
2022-09-22T09:51:14.293Z,16.60
2022-09-22T09:53:45.686Z,16.60
2022-09-22T09:56:23.460Z,16.70
2022-09-22T09:59:18.385Z,16.70
2022-09-22T10:01:50.731Z,16.80
2022-09-22T10:04:29.438Z,16.80
2022-09-22T10:07:12.257Z,16.90
2022-09-22T10:09:41.557Z,16.90
2022-09-22T10:12:23.657Z,16.90
2022-09-22T10:14:54.106Z,17.00
2022-09-22T10:17:24.881Z,17.00
2022-09-22T10:19:59.241Z,17.30
2022-09-22T10:22:29.475Z,17.40
2022-09-22T10:25:02.946Z,17.60
2022-09-22T10:27:32.820Z,17.80
2022-09-22T10:30:28.679Z,18.00
2022-09-22T10:33:15.404Z,18.20
2022-09-22T10:35:47.613Z,18.50
2022-09-22T10:38:20.246Z,18.70
2022-09-22T10:40:54.647Z,18.80
2022-09-22T10:43:42.533Z,18.90
2022-09-22T10:46:50.184Z,19.00
2022-09-22T10:49:31.151Z,19.20
2022-09-22T10:52:13.955Z,19.20
2022-09-22T10:55:10.627Z,19.00
2022-09-22T10:58:00.037Z,18.50
2022-09-22T11:00:29.811Z,18.60
2022-09-22T11:03:25.620Z,18.50
2022-09-22T11:06:29.583Z,18.60
2022-09-22T11:09:25.378Z,18.90
2022-09-22T11:12:17.889Z,19.10
2022-09-22T11:15:09.049Z,19.20
2022-09-22T11:17:53.249Z,19.40
2022-09-22T11:20:34.822Z,19.70
2022-09-22T11:23:35.076Z,19.90
2022-09-22T11:26:30.200Z,20.10
2022-09-22T11:29:47.294Z,20.30
2022-09-22T11:32:37.094Z,20.30
2022-09-22T11:35:27.992Z,20.40
2022-09-22T11:38:13.387Z,20.60
2022-09-22T11:41:04.661Z,20.60
2022-09-22T11:43:48.911Z,20.70
2022-09-22T11:46:27.320Z,20.80
2022-09-22T11:49:10.328Z,20.80
2022-09-22T11:52:00.513Z,20.80
2022-09-22T11:54:46.280Z,20.90
2022-09-22T11:57:18.267Z,21.10
2022-09-22T11:59:53.027Z,21.00
2022-09-22T12:02:27.156Z,21.00
2022-09-22T12:05:01.016Z,21.10
2022-09-22T12:07:37.537Z,21.10
2022-09-22T12:10:14.702Z,21.30
2022-09-22T12:12:48.657Z,21.50
2022-09-22T12:15:25.314Z,21.50
2022-09-22T12:18:02.075Z,21.30
2022-09-22T12:20:41.152Z,21.30
2022-09-22T12:23:28.456Z,21.30
2022-09-22T12:26:06.059Z,21.30
2022-09-22T12:28:40.046Z,21.40
2022-09-22T12:31:13.256Z,21.40
2022-09-22T12:33:49.916Z,21.40
2022-09-22T12:36:28.752Z,21.20
2022-09-22T12:39:09.861Z,21.00
2022-09-22T12:41:48.327Z,21.00
2022-09-22T12:44:21.401Z,21.10
2022-09-22T12:46:52.198Z,21.30
2022-09-22T12:49:23.693Z,21.70
2022-09-22T12:51:53.086Z,22.10
2022-09-22T12:54:48.264Z,22.50
2022-09-22T12:57:31.381Z,22.50
2022-09-22T13:00:23.938Z,22.50
2022-09-22T13:02:56.581Z,23.20
2022-09-22T13:05:46.574Z,23.90
2022-09-22T13:08:49.608Z,24.90
2022-09-22T13:11:18.416Z,25.70
2022-09-22T13:13:47.977Z,26.60
2022-09-22T13:16:36.537Z,27.50
2022-09-22T13:19:11.384Z,27.90
2022-09-22T13:21:40.218Z,28.10
2022-09-22T13:24:23.697Z,28.20
2022-09-22T13:27:05.638Z,28.20
2022-09-22T13:29:35.284Z,28.90
2022-09-22T13:32:18.494Z,29.90
2022-09-22T13:34:49.590Z,30.80
2022-09-22T13:37:22.691Z,32.00
2022-09-22T13:39:54.337Z,32.70
2022-09-22T13:42:32.328Z,33.70
2022-09-22T13:45:06.677Z,34.70
2022-09-22T13:47:36.753Z,35.50
2022-09-22T13:50:11.799Z,35.70
2022-09-22T13:52:42.204Z,36.10
2022-09-22T13:55:15.852Z,36.60
2022-09-22T13:57:44.331Z,37.00
2022-09-22T14:00:24.712Z,37.20
2022-09-22T14:02:53.628Z,37.00
2022-09-22T14:05:28.187Z,37.10
2022-09-22T14:08:12.068Z,37.40
2022-09-22T14:10:43.745Z,36.80
2022-09-22T14:13:37.819Z,35.60
2022-09-22T14:16:22.767Z,33.60
2022-09-22T14:18:57.965Z,31.90
2022-09-22T14:21:28.051Z,30.40
2022-09-22T14:23:57.576Z,29.20
2022-09-22T14:26:34.544Z,28.00
2022-09-22T14:29:16.906Z,27.00
2022-09-22T14:31:49.929Z,26.30
2022-09-22T14:34:23.154Z,25.60
2022-09-22T14:36:54.415Z,24.90
2022-09-22T14:39:31.271Z,24.20
2022-09-22T14:42:09.473Z,23.70
2022-09-22T14:44:44.272Z,23.10
2022-09-22T14:47:24.486Z,22.60
2022-09-22T14:50:08.710Z,22.30
2022-09-22T14:52:42.700Z,21.90
2022-09-22T14:55:29.119Z,21.60
2022-09-22T14:58:01.803Z,21.30
2022-09-22T15:00:47.657Z,21.20
2022-09-22T15:03:21.764Z,20.90
2022-09-22T15:05:51.230Z,20.70
2022-09-22T15:08:25.321Z,20.50
2022-09-22T15:10:56.336Z,20.40
2022-09-22T15:13:31.826Z,20.40
2022-09-22T15:16:00.293Z,20.20
2022-09-22T15:18:31.074Z,20.10
2022-09-22T15:21:05.739Z,20.00
2022-09-22T15:23:40.981Z,19.80
2022-09-22T15:26:16.425Z,19.60
2022-09-22T15:28:48.470Z,19.50
2022-09-22T15:31:22.830Z,19.40
2022-09-22T15:33:51.263Z,19.20
2022-09-22T15:36:21.639Z,19.10
2022-09-22T15:38:53.096Z,19.00
2022-09-22T15:41:21.731Z,18.80
2022-09-22T15:43:50.202Z,18.70
2022-09-22T15:46:28.533Z,18.60
2022-09-22T15:49:01.132Z,18.60
2022-09-22T15:51:32.911Z,18.50
2022-09-22T15:54:02.687Z,18.40
2022-09-22T15:56:31.516Z,18.40
2022-09-22T15:59:03.180Z,18.40
2022-09-22T16:01:31.762Z,18.40
2022-09-22T16:04:01.118Z,18.30
2022-09-22T16:06:29.659Z,18.20
2022-09-22T16:08:58.644Z,18.20
2022-09-22T16:11:31.500Z,18.10
2022-09-22T16:14:03.827Z,17.90
2022-09-22T16:16:33.915Z,17.80
2022-09-22T16:19:03.621Z,17.70
2022-09-22T16:21:34.279Z,17.60
2022-09-22T16:24:11.212Z,17.50
2022-09-22T16:26:41.735Z,17.40
2022-09-22T16:29:10.513Z,17.40
2022-09-22T16:31:39.092Z,17.30
2022-09-22T16:34:08.371Z,17.20
2022-09-22T16:36:37.499Z,17.10
2022-09-22T16:39:06.582Z,17.10
2022-09-22T16:41:36.451Z,17.00
2022-09-22T16:44:06.755Z,16.90
2022-09-22T16:46:37.843Z,16.90
2022-09-22T16:49:10.882Z,16.80
2022-09-22T16:51:41.253Z,16.80
2022-09-22T16:54:12.521Z,16.70
2022-09-22T16:56:41.981Z,16.70
2022-09-22T16:59:13.544Z,16.70
2022-09-22T17:01:43.749Z,16.70
2022-09-22T17:04:16.007Z,16.70
2022-09-22T17:06:44.660Z,16.70
2022-09-22T17:09:15.294Z,16.70
2022-09-22T17:11:44.228Z,16.80
2022-09-22T17:14:15.828Z,16.80
2022-09-22T17:16:45.761Z,16.80
2022-09-22T17:19:17.183Z,16.90
2022-09-22T17:21:46.654Z,16.90
2022-09-22T17:24:16.124Z,16.80
2022-09-22T17:26:47.526Z,16.90
2022-09-22T17:29:19.199Z,16.90
2022-09-22T17:31:48.323Z,16.90
2022-09-22T17:34:17.097Z,16.90
2022-09-22T17:36:46.305Z,16.90
2022-09-22T17:39:14.689Z,17.00
2022-09-22T17:41:47.181Z,16.90
2022-09-22T17:44:20.864Z,16.90
2022-09-22T17:47:07.815Z,16.90
2022-09-22T17:50:05.125Z,16.90
2022-09-22T17:52:51.427Z,16.80
2022-09-22T17:55:25.608Z,16.80
2022-09-22T17:57:56.242Z,16.70
2022-09-22T18:00:27.611Z,16.60
2022-09-22T18:02:56.614Z,16.50
2022-09-22T18:05:27.203Z,16.50
2022-09-22T18:07:58.386Z,16.50
2022-09-22T18:10:34.083Z,16.40
2022-09-22T18:13:04.331Z,16.30
2022-09-22T18:15:37.001Z,16.20
2022-09-22T18:18:05.582Z,16.00
2022-09-22T18:20:34.477Z,15.90
2022-09-22T18:23:03.656Z,15.80
2022-09-22T18:25:33.875Z,15.70
2022-09-22T18:28:04.009Z,15.70
2022-09-22T18:30:34.169Z,15.70
2022-09-22T18:33:02.731Z,15.60
2022-09-22T18:35:32.209Z,15.50
2022-09-22T18:38:01.293Z,15.50
2022-09-22T18:40:30.044Z,15.40
2022-09-22T18:42:58.549Z,15.40
2022-09-22T18:45:27.043Z,15.30
2022-09-22T18:48:03.667Z,15.30
2022-09-22T18:50:35.757Z,15.30
2022-09-22T18:53:04.249Z,15.30
2022-09-22T18:55:32.532Z,15.20
2022-09-22T18:58:01.335Z,15.20
2022-09-22T19:00:29.646Z,15.20
2022-09-22T19:03:00.538Z,15.10
2022-09-22T19:05:29.171Z,15.00
2022-09-22T19:08:00.764Z,15.00
2022-09-22T19:10:29.163Z,15.00
2022-09-22T19:12:57.886Z,14.80
2022-09-22T19:15:26.168Z,14.70
2022-09-22T19:17:54.669Z,14.70
2022-09-22T19:20:24.493Z,14.70
2022-09-22T19:22:54.061Z,14.70
2022-09-22T19:25:23.458Z,14.60
2022-09-22T19:27:53.196Z,14.60
2022-09-22T19:30:24.627Z,14.40
2022-09-22T19:32:55.701Z,14.30
2022-09-22T19:35:25.410Z,14.20
2022-09-22T19:37:54.100Z,14.10
2022-09-22T19:40:25.025Z,14.10
2022-09-22T19:42:54.756Z,14.10
2022-09-22T19:45:25.570Z,14.10
2022-09-22T19:47:55.874Z,14.20
2022-09-22T19:50:25.824Z,14.10
2022-09-22T19:52:54.214Z,14.00
2022-09-22T19:55:22.822Z,13.90
2022-09-22T19:57:54.124Z,13.80
2022-09-22T20:00:26.145Z,13.80
2022-09-22T20:02:58.623Z,13.80
2022-09-22T20:05:34.877Z,13.80
2022-09-22T20:08:03.892Z,13.80
2022-09-22T20:10:32.567Z,13.80
2022-09-22T20:13:01.179Z,13.70
2022-09-22T20:15:29.900Z,13.50
2022-09-22T20:17:58.487Z,13.40
2022-09-22T20:20:26.914Z,13.20
2022-09-22T20:23:00.441Z,13.10
2022-09-22T20:25:41.570Z,13.10
2022-09-22T20:28:10.465Z,13.20
2022-09-22T20:30:39.136Z,13.20
2022-09-22T20:33:09.847Z,13.00
2022-09-22T20:35:38.331Z,13.00
2022-09-22T20:38:12.057Z,12.90
2022-09-22T20:40:41.588Z,13.00
2022-09-22T20:43:13.963Z,13.00
2022-09-22T20:45:43.441Z,13.10
2022-09-22T20:48:17.094Z,13.20
2022-09-22T20:50:45.925Z,13.20
2022-09-22T20:53:15.952Z,13.20
2022-09-22T20:55:44.356Z,13.20
2022-09-22T20:58:13.574Z,13.20
2022-09-22T21:00:42.690Z,13.20
2022-09-22T21:03:11.659Z,13.20
2022-09-22T21:05:40.040Z,13.10
2022-09-22T21:08:26.101Z,13.00
2022-09-22T21:10:55.898Z,12.90
2022-09-22T21:13:24.867Z,12.60
2022-09-22T21:16:00.727Z,12.60
2022-09-22T21:18:31.291Z,12.60
2022-09-22T21:21:01.510Z,12.60
2022-09-22T21:23:30.918Z,12.70
2022-09-22T21:26:02.497Z,12.80
2022-09-22T21:28:31.555Z,12.90
2022-09-22T21:31:02.326Z,13.00
2022-09-22T21:33:32.167Z,13.00
2022-09-22T21:36:05.384Z,13.10
2022-09-22T21:38:33.963Z,13.10
2022-09-22T21:41:05.614Z,13.10
2022-09-22T21:43:34.839Z,13.00
2022-09-22T21:46:05.984Z,12.90
2022-09-22T21:48:37.500Z,12.80
2022-09-22T21:51:07.985Z,12.70
2022-09-22T21:53:38.058Z,12.50
2022-09-22T21:56:11.622Z,12.40
2022-09-22T21:58:41.836Z,12.40
2022-09-22T22:01:12.216Z,12.40
2022-09-22T22:03:42.330Z,12.40
2022-09-22T22:06:13.496Z,12.50
2022-09-22T22:08:44.536Z,12.60
2022-09-22T22:11:20.921Z,12.60
2022-09-22T22:13:52.144Z,12.70
2022-09-22T22:16:25.215Z,12.70
2022-09-22T22:18:53.648Z,12.70
2022-09-22T22:21:24.037Z,12.70
2022-09-22T22:23:59.392Z,12.70
2022-09-22T22:26:29.988Z,12.60
2022-09-22T22:28:58.570Z,12.50
2022-09-22T22:31:27.083Z,12.50
2022-09-22T22:33:55.375Z,12.50
2022-09-22T22:36:25.084Z,12.40
2022-09-22T22:38:54.055Z,12.40
2022-09-22T22:41:22.329Z,12.30
2022-09-22T22:43:52.680Z,12.40
2022-09-22T22:46:20.982Z,12.40
2022-09-22T22:48:50.017Z,12.30
2022-09-22T22:51:20.264Z,12.30
2022-09-22T22:53:49.035Z,12.10
2022-09-22T22:56:18.824Z,11.70
2022-09-22T22:58:48.432Z,11.40
2022-09-22T23:01:20.073Z,11.40
2022-09-22T23:03:51.842Z,11.50
2022-09-22T23:06:21.821Z,11.70
2022-09-22T23:08:50.848Z,11.80
2022-09-22T23:11:23.586Z,12.00
2022-09-22T23:13:54.080Z,12.10
2022-09-22T23:16:25.985Z,12.20
2022-09-22T23:18:55.285Z,12.20
2022-09-22T23:21:23.655Z,12.30
2022-09-22T23:23:51.895Z,12.40
2022-09-22T23:26:20.331Z,12.50
2022-09-22T23:28:48.724Z,12.50
2022-09-22T23:31:19.434Z,12.60
2022-09-22T23:33:50.444Z,12.70
2022-09-22T23:36:21.298Z,12.70
2022-09-22T23:38:53.564Z,12.70
2022-09-22T23:41:23.349Z,12.70
2022-09-22T23:43:52.372Z,12.80
2022-09-22T23:46:21.519Z,12.70
2022-09-22T23:48:51.330Z,12.70
2022-09-22T23:51:20.162Z,12.80
2022-09-22T23:53:48.581Z,12.70
2022-09-22T23:56:16.903Z,12.50
2022-09-22T23:58:45.402Z,12.40
